createdAt,value
2023-06-07T00:00:12.626Z,16.66
2023-06-07T00:02:44.027Z,16.65
2023-06-07T00:05:14.322Z,16.60
2023-06-07T00:07:42.414Z,16.59
2023-06-07T00:10:12.521Z,16.55
2023-06-07T00:12:40.374Z,16.54
2023-06-07T00:15:09.180Z,16.55
2023-06-07T00:17:38.840Z,16.57
2023-06-07T00:20:10.099Z,16.62
2023-06-07T00:22:40.019Z,16.60
2023-06-07T00:25:09.696Z,16.62
2023-06-07T00:27:38.949Z,16.65
2023-06-07T00:30:08.345Z,16.70
2023-06-07T00:32:36.120Z,16.74
2023-06-07T00:35:04.020Z,16.75
2023-06-07T00:37:31.772Z,16.76
2023-06-07T00:39:59.620Z,16.78
2023-06-07T00:42:27.465Z,16.81
2023-06-07T00:44:56.638Z,16.83
2023-06-07T00:47:24.567Z,16.87
2023-06-07T00:49:52.541Z,16.89
2023-06-07T00:52:20.516Z,16.91
2023-06-07T00:54:48.889Z,16.91
2023-06-07T00:57:18.599Z,16.92
2023-06-07T00:59:46.554Z,16.92
2023-06-07T01:02:16.599Z,16.93
2023-06-07T01:04:44.697Z,16.95
2023-06-07T01:07:13.682Z,16.97
2023-06-07T01:09:41.556Z,16.96
2023-06-07T01:12:15.001Z,16.98
2023-06-07T01:14:44.620Z,16.94
2023-06-07T01:17:14.013Z,16.92
2023-06-07T01:19:44.604Z,16.90
2023-06-07T01:22:13.093Z,16.85
2023-06-07T01:24:43.529Z,16.83
2023-06-07T01:27:12.359Z,16.74
2023-06-07T01:29:40.590Z,16.83
2023-06-07T01:32:10.866Z,16.80
2023-06-07T01:34:39.103Z,16.78
2023-06-07T01:37:07.357Z,16.76
2023-06-07T01:39:35.443Z,16.78
2023-06-07T01:42:05.324Z,16.77
2023-06-07T01:44:33.571Z,16.76
2023-06-07T01:47:01.383Z,16.75
2023-06-07T01:49:29.202Z,16.76
2023-06-07T01:51:57.010Z,16.77
2023-06-07T01:54:25.025Z,16.62
2023-06-07T01:57:06.249Z,16.77
2023-06-07T01:59:40.998Z,16.73
2023-06-07T02:02:15.695Z,16.75
2023-06-07T02:04:47.170Z,16.74
2023-06-07T02:07:19.700Z,16.74
2023-06-07T02:09:49.121Z,16.73
2023-06-07T02:12:17.638Z,16.74
2023-06-07T02:14:47.194Z,16.74
2023-06-07T02:17:15.111Z,16.76
2023-06-07T02:19:45.191Z,16.76
2023-06-07T02:22:14.485Z,16.76
2023-06-07T02:24:42.555Z,16.75
2023-06-07T02:27:10.552Z,16.75
2023-06-07T02:29:38.400Z,16.74
2023-06-07T02:32:09.345Z,16.71
2023-06-07T02:34:37.347Z,16.71
2023-06-07T02:37:05.412Z,16.68
2023-06-07T02:39:33.266Z,16.63
2023-06-07T02:42:01.091Z,16.57
2023-06-07T02:44:29.335Z,16.55
2023-06-07T02:46:57.252Z,16.55
2023-06-07T02:49:26.433Z,16.53
2023-06-07T02:51:54.230Z,16.50
2023-06-07T02:54:22.072Z,16.51
2023-06-07T02:56:49.855Z,16.37
2023-06-07T02:59:17.651Z,16.46
2023-06-07T03:01:45.482Z,16.42
2023-06-07T03:04:13.280Z,16.40
2023-06-07T03:06:43.237Z,16.37
2023-06-07T03:09:11.014Z,16.37
2023-06-07T03:11:38.873Z,16.34
2023-06-07T03:14:06.701Z,16.37
2023-06-07T03:16:34.799Z,16.36
2023-06-07T03:19:02.634Z,16.31
2023-06-07T03:21:30.414Z,16.29
2023-06-07T03:23:59.674Z,16.24
2023-06-07T03:26:27.596Z,16.25
2023-06-07T03:28:55.918Z,16.24
2023-06-07T03:31:24.626Z,16.26
2023-06-07T03:33:52.647Z,16.27
2023-06-07T03:36:22.155Z,16.26
2023-06-07T03:38:50.000Z,16.27
2023-06-07T03:41:19.120Z,16.27
2023-06-07T03:43:46.924Z,16.29
2023-06-07T03:46:14.749Z,16.32
2023-06-07T03:48:42.633Z,16.34
2023-06-07T03:51:10.548Z,16.32
2023-06-07T03:53:38.402Z,16.35
2023-06-07T03:56:07.325Z,16.36
2023-06-07T03:58:37.216Z,16.36
2023-06-07T04:01:04.963Z,16.37
2023-06-07T04:03:32.957Z,16.41
2023-06-07T04:06:00.863Z,16.41
2023-06-07T04:08:28.952Z,16.41
2023-06-07T04:10:56.828Z,16.35
2023-06-07T04:13:24.667Z,16.29
2023-06-07T04:15:53.837Z,16.26
2023-06-07T04:18:21.636Z,16.25
2023-06-07T04:20:49.400Z,16.29
2023-06-07T04:23:17.239Z,16.35
2023-06-07T04:25:45.112Z,16.35
2023-06-07T04:28:13.376Z,16.35
2023-06-07T04:30:43.350Z,16.39
2023-06-07T04:33:14.715Z,16.36
2023-06-07T04:35:43.899Z,16.45
2023-06-07T04:38:12.976Z,16.44
2023-06-07T04:40:42.318Z,16.47
2023-06-07T04:43:12.251Z,16.47
2023-06-07T04:45:42.707Z,16.47
2023-06-07T04:48:13.022Z,16.46
2023-06-07T04:50:42.400Z,16.39
2023-06-07T04:53:11.985Z,16.45
2023-06-07T04:55:42.901Z,16.49
2023-06-07T04:58:10.959Z,16.55
2023-06-07T05:00:40.415Z,16.63
2023-06-07T05:03:09.522Z,16.70
2023-06-07T05:05:39.169Z,16.78
2023-06-07T05:08:07.611Z,16.86
2023-06-07T05:10:35.492Z,16.91
2023-06-07T05:13:03.353Z,17.04
2023-06-07T05:15:32.401Z,17.12
2023-06-07T05:18:00.822Z,17.14
2023-06-07T05:20:28.901Z,17.19
2023-06-07T05:22:58.445Z,17.29
2023-06-07T05:25:26.425Z,17.40
2023-06-07T05:28:08.217Z,17.52
2023-06-07T05:30:41.000Z,17.66
2023-06-07T05:33:09.002Z,17.65
2023-06-07T05:35:36.904Z,17.76
2023-06-07T05:38:06.067Z,17.81
2023-06-07T05:40:33.829Z,17.92
2023-06-07T05:43:01.683Z,17.98
2023-06-07T05:45:31.027Z,18.06
2023-06-07T05:47:59.029Z,18.13
2023-06-07T05:50:27.138Z,18.25
2023-06-07T05:52:57.694Z,18.29
2023-06-07T05:55:28.165Z,18.32
2023-06-07T05:57:56.440Z,18.09
2023-06-07T06:00:25.012Z,18.26
2023-06-07T06:02:54.492Z,18.17
2023-06-07T06:05:28.527Z,18.21
2023-06-07T06:07:57.663Z,18.39
2023-06-07T06:10:27.212Z,18.49
2023-06-07T06:12:56.815Z,18.53
2023-06-07T06:15:24.784Z,18.45
2023-06-07T06:17:55.458Z,18.39
2023-06-07T06:20:23.877Z,18.34
2023-06-07T06:22:51.722Z,18.38
2023-06-07T06:25:19.680Z,18.43
2023-06-07T06:27:48.880Z,18.56
2023-06-07T06:30:17.112Z,18.55
2023-06-07T06:32:45.002Z,18.68
2023-06-07T06:35:12.854Z,18.86
2023-06-07T06:37:40.636Z,18.95
2023-06-07T06:40:09.978Z,18.85
2023-06-07T06:42:38.445Z,18.86
2023-06-07T06:45:09.449Z,18.95
2023-06-07T06:47:42.492Z,19.19
2023-06-07T06:50:29.951Z,19.38
2023-06-07T06:52:59.080Z,19.65
2023-06-07T06:55:26.917Z,19.83
2023-06-07T06:57:54.744Z,19.78
2023-06-07T07:00:24.692Z,19.52
2023-06-07T07:02:52.707Z,19.74
2023-06-07T07:05:20.855Z,19.85
2023-06-07T07:07:48.805Z,20.02
2023-06-07T07:10:19.390Z,20.08
2023-06-07T07:12:47.258Z,20.19
2023-06-07T07:15:15.115Z,20.42
2023-06-07T07:17:47.628Z,20.49
2023-06-07T07:20:16.220Z,20.62
2023-06-07T07:22:45.216Z,20.71
2023-06-07T07:25:13.704Z,20.54
2023-06-07T07:27:41.559Z,20.64
2023-06-07T07:30:11.047Z,20.71
2023-06-07T07:32:39.980Z,20.64
2023-06-07T07:35:09.691Z,20.46
2023-06-07T07:37:41.542Z,20.56
2023-06-07T07:40:11.016Z,20.64
2023-06-07T07:42:39.725Z,20.44
2023-06-07T07:45:08.868Z,19.94
2023-06-07T07:47:36.729Z,19.77
2023-06-07T07:50:06.135Z,19.84
2023-06-07T07:52:35.474Z,20.03
2023-06-07T07:55:03.759Z,20.37
2023-06-07T07:57:31.958Z,20.55
2023-06-07T07:59:59.759Z,20.75
2023-06-07T08:02:27.635Z,20.57
2023-06-07T08:04:55.605Z,20.43
2023-06-07T08:07:24.092Z,20.94
2023-06-07T08:09:53.325Z,21.08
2023-06-07T08:12:21.131Z,20.90
2023-06-07T08:14:48.934Z,21.08
2023-06-07T08:17:16.763Z,20.77
2023-06-07T08:19:44.558Z,20.98
2023-06-07T08:22:12.394Z,21.36
2023-06-07T08:24:40.301Z,21.55
2023-06-07T08:27:10.084Z,21.71
2023-06-07T08:29:37.921Z,21.86
2023-06-07T08:32:06.472Z,21.83
2023-06-07T08:34:34.595Z,21.94
2023-06-07T08:37:02.842Z,22.15
2023-06-07T08:39:30.750Z,22.28
2023-06-07T08:41:58.567Z,22.55
2023-06-07T08:44:27.819Z,22.71
2023-06-07T08:46:57.177Z,22.90
2023-06-07T08:49:27.914Z,23.24
2023-06-07T08:52:07.247Z,23.11
2023-06-07T08:54:44.014Z,22.76
2023-06-07T08:57:12.181Z,22.52
2023-06-07T08:59:43.129Z,22.35
2023-06-07T09:02:11.081Z,22.25
2023-06-07T09:04:41.501Z,22.58
2023-06-07T09:07:09.359Z,22.58
2023-06-07T09:09:37.536Z,22.34
2023-06-07T09:12:06.724Z,22.27
2023-06-07T09:14:34.750Z,22.35
2023-06-07T09:17:04.559Z,22.33
2023-06-07T09:19:34.942Z,22.24
2023-06-07T09:22:03.613Z,22.17
2023-06-07T09:24:32.565Z,22.14
2023-06-07T09:27:01.983Z,21.97
2023-06-07T09:29:30.442Z,22.33
2023-06-07T09:32:00.444Z,22.40
2023-06-07T09:34:31.573Z,22.59
2023-06-07T09:37:00.646Z,22.74
2023-06-07T09:39:30.140Z,22.80
2023-06-07T09:41:58.671Z,22.83
2023-06-07T09:44:28.075Z,22.65
2023-06-07T09:46:56.168Z,22.60
2023-06-07T09:49:25.662Z,22.53
2023-06-07T09:51:55.582Z,22.78
2023-06-07T09:54:37.796Z,22.95
2023-06-07T09:57:09.939Z,23.81
2023-06-07T09:59:38.582Z,23.95
2023-06-07T10:02:25.139Z,23.68
2023-06-07T10:04:57.299Z,23.70
2023-06-07T10:07:31.720Z,23.47
2023-06-07T10:10:00.468Z,23.25
2023-06-07T10:12:30.253Z,23.42
2023-06-07T10:14:58.699Z,23.44
2023-06-07T10:17:30.863Z,23.50
2023-06-07T10:20:01.638Z,24.10
2023-06-07T10:22:35.304Z,24.36
2023-06-07T10:25:05.417Z,24.09
2023-06-07T10:27:41.648Z,24.54
2023-06-07T10:30:13.300Z,24.75
2023-06-07T10:32:41.314Z,24.47
2023-06-07T10:35:12.820Z,24.38
2023-06-07T10:37:44.952Z,23.89
2023-06-07T10:40:16.101Z,23.41
2023-06-07T10:42:45.518Z,23.38
2023-06-07T10:45:16.552Z,23.31
2023-06-07T10:47:44.761Z,23.72
2023-06-07T10:50:46.332Z,23.79
2023-06-07T10:53:15.807Z,23.52
2023-06-07T10:55:43.595Z,23.43
2023-06-07T10:58:31.106Z,23.15
2023-06-07T11:01:02.408Z,22.62
2023-06-07T11:03:42.985Z,22.58
2023-06-07T11:06:11.714Z,22.88
2023-06-07T11:08:41.035Z,23.21
2023-06-07T11:11:54.329Z,23.74
2023-06-07T11:14:22.156Z,24.68
2023-06-07T11:16:50.005Z,25.55
2023-06-07T11:19:20.056Z,25.83
2023-06-07T11:22:11.568Z,26.56
2023-06-07T11:24:40.852Z,27.23
2023-06-07T11:27:15.426Z,27.44
2023-06-07T11:29:44.899Z,25.92
2023-06-07T11:32:13.084Z,25.66
2023-06-07T11:34:41.103Z,25.20
2023-06-07T11:37:10.468Z,25.05
2023-06-07T11:39:38.271Z,25.25
2023-06-07T11:42:08.265Z,25.46
2023-06-07T11:44:39.459Z,25.73
2023-06-07T11:47:08.484Z,25.73
2023-06-07T11:49:39.606Z,25.23
2023-06-07T11:52:08.428Z,25.15
2023-06-07T11:54:36.444Z,24.79
2023-06-07T11:57:04.562Z,24.71
2023-06-07T11:59:33.936Z,24.46
2023-06-07T12:02:01.926Z,24.51
2023-06-07T12:04:29.777Z,24.00
2023-06-07T12:06:57.615Z,24.31
2023-06-07T12:09:25.390Z,24.79
2023-06-07T12:11:54.735Z,25.64
2023-06-07T12:14:34.373Z,25.94
2023-06-07T12:17:03.589Z,26.80
2023-06-07T12:19:31.559Z,27.03
2023-06-07T12:22:07.448Z,27.23
2023-06-07T12:24:40.044Z,27.46
2023-06-07T12:27:13.195Z,27.81
2023-06-07T12:29:43.156Z,27.33
2023-06-07T12:32:11.933Z,27.14
2023-06-07T12:34:45.628Z,26.60
2023-06-07T12:37:14.169Z,27.29
2023-06-07T12:39:42.087Z,27.60
2023-06-07T12:42:09.920Z,27.75
2023-06-07T12:44:38.333Z,27.97
2023-06-07T12:47:08.487Z,27.95
2023-06-07T12:49:36.507Z,27.76
2023-06-07T12:52:05.998Z,27.79
2023-06-07T12:54:33.840Z,27.74
2023-06-07T12:57:01.685Z,27.28
2023-06-07T12:59:29.484Z,26.98
2023-06-07T13:01:57.298Z,26.43
2023-06-07T13:04:28.048Z,26.25
2023-06-07T13:06:57.091Z,26.23
2023-06-07T13:09:25.636Z,26.26
2023-06-07T13:11:55.147Z,26.82
2023-06-07T13:14:22.988Z,26.97
2023-06-07T13:16:50.803Z,26.78
2023-06-07T13:19:18.650Z,26.32
2023-06-07T13:21:47.883Z,26.23
2023-06-07T13:24:15.973Z,26.80
2023-06-07T13:26:44.205Z,27.24
2023-06-07T13:29:12.233Z,27.67
2023-06-07T13:31:40.084Z,27.81
2023-06-07T13:34:08.620Z,27.97
2023-06-07T13:36:38.003Z,27.63
2023-06-07T13:39:07.279Z,27.67
2023-06-07T13:41:39.379Z,27.50
2023-06-07T13:44:17.363Z,26.67
2023-06-07T13:46:46.273Z,26.99
2023-06-07T13:49:15.107Z,27.49
2023-06-07T13:51:43.136Z,28.05
2023-06-07T13:54:12.481Z,28.72
2023-06-07T13:56:40.396Z,29.31
2023-06-07T13:59:08.287Z,29.31
2023-06-07T14:01:36.891Z,29.08
2023-06-07T14:04:05.081Z,29.50
2023-06-07T14:06:32.970Z,29.99
2023-06-07T14:09:00.877Z,29.36
2023-06-07T14:11:31.345Z,27.90
2023-06-07T14:13:59.189Z,27.76
2023-06-07T14:16:28.629Z,27.70
2023-06-07T14:18:56.821Z,27.54
2023-06-07T14:21:24.700Z,27.49
2023-06-07T14:23:52.554Z,27.23
2023-06-07T14:26:21.025Z,27.08
2023-06-07T14:28:50.373Z,26.90
2023-06-07T14:31:20.347Z,26.78
2023-06-07T14:33:48.202Z,26.65
2023-06-07T14:36:17.378Z,26.44
2023-06-07T14:38:45.296Z,26.36
2023-06-07T14:41:13.620Z,26.38
2023-06-07T14:43:41.401Z,26.36
2023-06-07T14:46:10.624Z,26.51
2023-06-07T14:48:38.456Z,26.77
2023-06-07T14:51:06.293Z,27.23
2023-06-07T14:53:34.112Z,27.48
2023-06-07T14:56:01.913Z,27.88
2023-06-07T14:58:29.814Z,28.35
2023-06-07T15:00:57.701Z,28.68
2023-06-07T15:03:26.964Z,29.05
2023-06-07T15:05:54.861Z,28.29
2023-06-07T15:08:22.643Z,27.48
2023-06-07T15:10:50.429Z,27.17
2023-06-07T15:13:19.243Z,27.14
2023-06-07T15:15:47.138Z,27.13
2023-06-07T15:18:16.760Z,27.04
2023-06-07T15:20:46.072Z,26.76
2023-06-07T15:23:13.878Z,26.79
2023-06-07T15:25:42.047Z,26.84
2023-06-07T15:28:09.900Z,26.89
2023-06-07T15:30:37.743Z,26.86
2023-06-07T15:33:05.909Z,26.88
2023-06-07T15:35:33.841Z,27.09
2023-06-07T15:38:03.125Z,26.91
2023-06-07T15:40:31.230Z,26.45
2023-06-07T15:42:59.138Z,26.57
2023-06-07T15:45:28.220Z,26.50
2023-06-07T15:48:02.797Z,26.35
2023-06-07T15:50:31.615Z,26.14
2023-06-07T15:53:00.442Z,26.02
2023-06-07T15:55:29.630Z,25.57
2023-06-07T15:57:57.678Z,25.40
2023-06-07T16:00:37.614Z,25.37
2023-06-07T16:03:07.055Z,25.24
2023-06-07T16:05:35.668Z,24.90
2023-06-07T16:08:12.538Z,24.88
2023-06-07T16:10:42.907Z,24.81
2023-06-07T16:13:10.809Z,24.75
2023-06-07T16:15:38.699Z,24.84
2023-06-07T16:18:07.015Z,24.70
2023-06-07T16:20:34.842Z,24.66
2023-06-07T16:23:02.697Z,24.49
2023-06-07T16:25:30.562Z,24.54
2023-06-07T16:27:59.700Z,24.49
2023-06-07T16:30:27.818Z,24.38
2023-06-07T16:32:55.983Z,24.39
2023-06-07T16:35:23.844Z,24.30
2023-06-07T16:37:51.609Z,23.40
2023-06-07T16:40:19.617Z,22.63
2023-06-07T16:42:47.471Z,22.37
2023-06-07T16:45:16.770Z,22.33
2023-06-07T16:47:44.566Z,22.31
2023-06-07T16:50:12.827Z,22.27
2023-06-07T16:52:40.718Z,22.22
2023-06-07T16:55:09.289Z,22.20
2023-06-07T16:57:39.957Z,22.19
2023-06-07T17:00:09.582Z,22.12
2023-06-07T17:02:38.884Z,22.00
2023-06-07T17:05:08.056Z,21.86
2023-06-07T17:07:36.284Z,21.67
2023-06-07T17:10:04.418Z,21.55
2023-06-07T17:12:32.591Z,21.43
2023-06-07T17:15:00.419Z,21.45
2023-06-07T17:17:28.316Z,21.42
2023-06-07T17:19:57.561Z,21.42
2023-06-07T17:22:25.774Z,21.40
2023-06-07T17:24:53.582Z,21.29
2023-06-07T17:27:21.366Z,21.26
2023-06-07T17:29:49.178Z,21.20
2023-06-07T17:32:17.015Z,21.10
2023-06-07T17:34:44.796Z,20.98
2023-06-07T17:37:17.876Z,20.66
2023-06-07T17:39:45.705Z,20.49
2023-06-07T17:42:16.957Z,20.37
2023-06-07T17:44:44.789Z,20.22
2023-06-07T17:47:14.500Z,20.00
2023-06-07T17:49:43.791Z,19.89
2023-06-07T17:52:21.583Z,19.80
2023-06-07T17:54:51.185Z,19.68
2023-06-07T17:57:18.951Z,19.59
2023-06-07T17:59:46.746Z,19.55
2023-06-07T18:02:14.550Z,19.59
2023-06-07T18:04:42.396Z,19.53
2023-06-07T18:07:10.156Z,19.47
2023-06-07T18:09:39.850Z,19.40
2023-06-07T18:12:11.380Z,19.25
2023-06-07T18:14:41.145Z,19.15
2023-06-07T18:17:09.429Z,19.12
2023-06-07T18:19:37.538Z,19.10
2023-06-07T18:22:06.267Z,19.06
2023-06-07T18:24:34.079Z,19.02
2023-06-07T18:27:03.631Z,18.97
2023-06-07T18:29:31.552Z,18.89
2023-06-07T18:31:59.440Z,18.86
2023-06-07T18:34:27.219Z,18.84
2023-06-07T18:36:55.049Z,18.81
2023-06-07T18:39:23.576Z,18.82
2023-06-07T18:41:52.053Z,18.79
2023-06-07T18:44:21.281Z,18.73
2023-06-07T18:46:49.406Z,18.68
2023-06-07T18:49:17.801Z,18.64
2023-06-07T18:51:45.681Z,18.66
2023-06-07T18:54:13.502Z,18.62
2023-06-07T18:56:41.536Z,18.64
2023-06-07T18:59:09.333Z,18.58
2023-06-07T19:01:51.382Z,18.54
2023-06-07T19:04:20.430Z,18.52
2023-06-07T19:06:51.564Z,18.52
2023-06-07T19:09:20.085Z,18.50
2023-06-07T19:11:48.074Z,18.46
2023-06-07T19:14:17.374Z,18.47
2023-06-07T19:16:47.156Z,18.45
2023-06-07T19:19:15.242Z,18.44
2023-06-07T19:21:43.062Z,18.38
2023-06-07T19:24:10.881Z,18.36
2023-06-07T19:26:38.719Z,18.35
2023-06-07T19:29:06.560Z,18.32
2023-06-07T19:31:34.886Z,18.34
2023-06-07T19:34:06.804Z,18.32
2023-06-07T19:36:34.658Z,18.29
2023-06-07T19:39:02.485Z,18.28
2023-06-07T19:41:30.338Z,18.26
2023-06-07T19:43:58.174Z,18.25
2023-06-07T19:46:25.968Z,18.23
2023-06-07T19:48:53.892Z,18.20
2023-06-07T19:51:23.947Z,18.22
2023-06-07T19:53:53.148Z,18.19
2023-06-07T19:56:21.274Z,18.17
2023-06-07T19:58:49.124Z,18.18
2023-06-07T20:01:16.980Z,18.14
2023-06-07T20:03:44.835Z,18.12
2023-06-07T20:06:12.794Z,18.09
2023-06-07T20:08:41.996Z,18.08
2023-06-07T20:11:09.818Z,18.06
2023-06-07T20:13:37.642Z,18.04
2023-06-07T20:16:06.043Z,18.04
2023-06-07T20:18:33.929Z,18.02
2023-06-07T20:21:01.788Z,18.03
2023-06-07T20:23:29.646Z,18.01
2023-06-07T20:25:58.964Z,18.02
2023-06-07T20:28:26.755Z,18.02
2023-06-07T20:30:54.556Z,18.01
2023-06-07T20:33:22.363Z,18.02
2023-06-07T20:35:50.193Z,17.99
2023-06-07T20:38:17.948Z,17.99
2023-06-07T20:40:45.766Z,17.98
2023-06-07T20:43:14.940Z,17.97
2023-06-07T20:45:43.644Z,17.96
2023-06-07T20:48:11.632Z,17.94
2023-06-07T20:50:39.576Z,17.90
2023-06-07T20:53:07.392Z,17.95
2023-06-07T20:55:36.517Z,17.97
2023-06-07T20:58:04.368Z,18.01
2023-06-07T21:00:33.513Z,18.04
2023-06-07T21:03:01.476Z,18.03
2023-06-07T21:05:29.341Z,18.08
2023-06-07T21:07:57.164Z,18.09
2023-06-07T21:10:24.991Z,18.05
2023-06-07T21:12:52.756Z,18.06
2023-06-07T21:15:20.648Z,18.03
2023-06-07T21:17:49.836Z,18.02
2023-06-07T21:20:18.500Z,18.00
2023-06-07T21:22:46.306Z,17.98
2023-06-07T21:25:14.186Z,18.03
2023-06-07T21:27:42.043Z,18.06
2023-06-07T21:30:10.453Z,18.08
2023-06-07T21:32:38.356Z,18.06
2023-06-07T21:35:08.931Z,18.06
2023-06-07T21:37:36.789Z,18.13
2023-06-07T21:40:05.319Z,18.12
2023-06-07T21:42:33.382Z,18.09
2023-06-07T21:45:01.376Z,18.04
2023-06-07T21:47:29.214Z,18.03
2023-06-07T21:49:58.524Z,18.01
2023-06-07T21:52:27.831Z,18.00
2023-06-07T21:54:56.036Z,17.99
2023-06-07T21:57:23.959Z,18.00
2023-06-07T21:59:51.769Z,17.98
2023-06-07T22:02:19.546Z,18.02
2023-06-07T22:04:47.476Z,18.03
2023-06-07T22:07:15.388Z,18.07
2023-06-07T22:09:45.682Z,18.10
2023-06-07T22:12:15.795Z,18.15
2023-06-07T22:14:44.415Z,18.18
2023-06-07T22:17:12.293Z,18.23
2023-06-07T22:19:41.881Z,18.25
2023-06-07T22:22:09.699Z,18.34
2023-06-07T22:24:37.492Z,18.37
2023-06-07T22:27:07.709Z,18.38
2023-06-07T22:29:35.615Z,18.41
2023-06-07T22:32:03.694Z,18.36
2023-06-07T22:34:31.511Z,18.42
2023-06-07T22:37:04.203Z,18.40
2023-06-07T22:39:32.060Z,18.39
2023-06-07T22:41:59.843Z,18.37
2023-06-07T22:44:29.035Z,18.38
2023-06-07T22:46:57.019Z,18.36
2023-06-07T22:49:30.302Z,18.32
2023-06-07T22:51:58.840Z,18.30
2023-06-07T22:54:28.717Z,18.28
2023-06-07T22:56:56.693Z,18.28
2023-06-07T22:59:24.820Z,18.28
2023-06-07T23:01:54.924Z,18.07
2023-06-07T23:04:22.893Z,18.29
2023-06-07T23:06:50.988Z,18.29
2023-06-07T23:09:19.163Z,18.28
2023-06-07T23:11:50.188Z,18.29
2023-06-07T23:14:19.115Z,18.27
2023-06-07T23:16:49.834Z,18.25
2023-06-07T23:19:20.446Z,18.21
2023-06-07T23:21:48.576Z,18.20
2023-06-07T23:24:22.386Z,18.18
2023-06-07T23:26:50.235Z,18.15
2023-06-07T23:29:18.132Z,18.10
2023-06-07T23:31:48.675Z,18.06
2023-06-07T23:34:16.745Z,18.02
2023-06-07T23:36:46.144Z,18.01
2023-06-07T23:39:14.036Z,18.01
2023-06-07T23:41:41.902Z,17.97
2023-06-07T23:44:24.386Z,17.89
2023-06-07T23:46:52.668Z,17.81
2023-06-07T23:49:20.619Z,17.58
2023-06-07T23:51:49.768Z,17.76
2023-06-07T23:54:17.672Z,17.69
2023-06-07T23:56:45.482Z,17.66
2023-06-07T23:59:13.293Z,17.66
